Time;durP1;ratioP1;P1;durP2;ratioP2;P2;SDS_P1;SDS_P2;PMS_P1;PMS_P2;Temp;Humidity;BMP_temperature;BMP_pressure;BME280_temperature;BME280_humidity;BME280_pressure;Samples;Min_cycle;Max_cycle;Signal;HPM_P1;HPM_P2
2023/08/28 00:00:11;;;;;;;4.15;3.05;;;20.60;61.60;;;;;;5034470;28;20021;-65
2023/08/28 00:02:39;;;;;;;5.05;3.45;;;21.30;60.40;;;;;;5034429;28;20029;-66
2023/08/28 00:05:06;;;;;;;6.65;3.22;;;21.40;59.30;;;;;;5035207;28;20026;-66
2023/08/28 00:07:34;;;;;;;4.00;2.38;;;21.30;58.40;;;;;;5034163;28;20466;-65
2023/08/28 00:10:02;;;;;;;4.50;2.72;;;21.00;59.70;;;;;;5033973;28;20420;-66
2023/08/28 00:12:36;;;;;;;4.75;2.60;;;21.10;60.00;;;;;;5035275;28;20109;-65
2023/08/28 00:15:04;;;;;;;6.50;2.33;;;21.50;58.00;;;;;;5034209;28;20032;-65
2023/08/28 00:17:32;;;;;;;3.80;2.65;;;21.60;56.50;;;;;;5033728;28;20022;-67
2023/08/28 00:19:59;;;;;;;4.20;3.08;;;22.00;56.70;;;;;;5033392;28;20065;-65
2023/08/28 00:22:27;;;;;;;4.38;2.63;;;22.10;57.10;;;;;;5033854;28;20059;-66
2023/08/28 00:24:55;;;;;;;3.95;2.10;;;22.10;55.40;;;;;;5034171;28;20474;-66
2023/08/28 00:27:23;;;;;;;3.75;2.10;;;21.60;56.80;;;;;;5034059;28;20030;-65
2023/08/28 00:29:50;;;;;;;4.30;1.88;;;22.30;55.50;;;;;;5033562;28;20033;-65
2023/08/28 00:32:18;;;;;;;5.13;2.30;;;22.60;55.20;;;;;;5033410;28;20037;-66
2023/08/28 00:34:45;;;;;;;3.00;2.05;;;22.80;53.30;;;;;;5033781;28;20017;-66
2023/08/28 00:37:13;;;;;;;6.03;2.15;;;23.20;52.90;;;;;;5033874;28;20029;-66
2023/08/28 00:39:40;;;;;;;5.63;2.90;;;23.40;52.90;;;;;;5033642;28;20021;-66
2023/08/28 00:42:08;;;;;;;3.40;1.95;;;23.10;51.10;;;;;;5033818;28;20030;-66
2023/08/28 00:44:35;;;;;;;2.42;1.60;;;23.00;51.70;;;;;;5033890;28;20037;-65
2023/08/28 00:47:03;;;;;;;4.53;2.00;;;22.90;52.20;;;;;;5033645;28;20329;-64
2023/08/28 00:49:33;;;;;;;7.35;2.47;;;23.60;51.60;;;;;;5033285;28;20025;-65
2023/08/28 00:52:01;;;;;;;5.57;2.30;;;23.40;51.50;;;;;;5033526;28;20030;-65
2023/08/28 00:54:28;;;;;;;3.38;1.90;;;22.20;53.80;;;;;;5033820;28;20021;-65
2023/08/28 00:56:56;;;;;;;3.42;1.60;;;22.10;53.30;;;;;;5033734;28;20022;-65
2023/08/28 00:59:24;;;;;;;4.10;1.73;;;23.10;52.10;;;;;;5034549;28;20036;-65
2023/08/28 01:01:51;;;;;;;2.78;1.63;;;23.60;49.80;;;;;;5033784;28;20042;-65
2023/08/28 01:04:19;;;;;;;4.40;1.90;;;23.00;51.70;;;;;;5033611;28;20037;-65
2023/08/28 01:06:58;;;;;;;4.40;1.85;;;22.90;51.20;;;;;;5033525;28;20033;-65
2023/08/28 01:09:35;;;;;;;4.28;1.83;;;23.10;51.00;;;;;;5033460;28;20029;-65
2023/08/28 01:12:21;;;;;;;3.83;1.60;;;23.40;51.90;;;;;;5033611;28;20026;-61
2023/08/28 01:15:04;;;;;;;2.10;1.58;;;23.20;50.30;;;;;;5034547;28;20064;-62
2023/08/28 01:17:32;;;;;;;4.30;1.90;;;23.50;51.00;;;;;;5018056;28;20393;-60
2023/08/28 01:20:00;;;;;;;4.25;1.90;;;23.50;50.00;;;;;;5034094;28;20068;-62
2023/08/28 01:22:51;;;;;;;4.97;2.70;;;23.70;50.00;;;;;;5033310;28;20026;-61
2023/08/28 01:25:19;;;;;;;4.93;1.63;;;24.60;49.40;;;;;;5033332;28;20438;-62
2023/08/28 01:27:47;;;;;;;4.32;1.67;;;24.40;48.00;;;;;;5034236;28;20021;-62
2023/08/28 01:30:17;;;;;;;3.30;1.75;;;24.40;48.90;;;;;;5034350;28;20057;-63
2023/08/28 01:32:46;;;;;;;2.72;1.70;;;24.50;48.40;;;;;;5017110;28;20036;-64
2023/08/28 01:35:24;;;;;;;2.65;1.52;;;24.50;47.70;;;;;;5032969;28;20092;-62
2023/08/28 01:38:05;;;;;;;2.63;1.58;;;24.30;48.20;;;;;;5017191;28;20021;-63
2023/08/28 01:40:59;;;;;;;4.13;1.70;;;24.10;48.70;;;;;;5033576;28;20025;-63
2023/08/28 01:43:42;;;;;;;2.83;1.73;;;24.60;48.00;;;;;;5033276;28;20495;-62
2023/08/28 01:46:11;;;;;;;5.15;1.83;;;24.10;48.90;;;;;;5036238;28;20448;-63
2023/08/28 01:48:45;;;;;;;2.58;1.90;;;23.80;49.10;;;;;;5036793;28;20024;-62
2023/08/28 01:51:13;;;;;;;4.72;1.77;;;23.60;50.40;;;;;;5036629;28;20026;-63
2023/08/28 01:53:40;;;;;;;3.33;1.80;;;23.60;49.40;;;;;;5036501;28;20359;-63
2023/08/28 01:56:11;;;;;;;2.38;1.58;;;23.80;50.10;;;;;;5036389;28;20025;-64
2023/08/28 01:58:43;;;;;;;3.90;2.00;;;24.20;48.30;;;;;;5037350;28;20063;-65
2023/08/28 02:01:17;;;;;;;2.22;1.85;;;23.90;48.80;;;;;;5036125;28;20067;-65
2023/08/28 02:03:51;;;;;;;4.65;2.97;;;23.60;50.30;;;;;;5036528;28;20029;-64
2023/08/28 02:06:27;;;;;;;3.17;1.80;;;23.50;49.70;;;;;;5036062;28;20026;-64
2023/08/28 02:09:00;;;;;;;4.47;1.60;;;23.60;49.40;;;;;;5037182;28;20029;-65
2023/08/28 02:11:27;;;;;;;2.15;1.60;;;23.90;49.00;;;;;;5037230;28;20040;-65
2023/08/28 02:13:55;;;;;;;2.17;1.52;;;24.10;48.00;;;;;;5037229;28;20505;-66
2023/08/28 02:16:27;;;;;;;1.88;1.58;;;24.20;47.30;;;;;;5035746;28;20025;-66
2023/08/28 02:18:59;;;;;;;3.35;1.70;;;24.80;46.30;;;;;;5036160;28;20152;-65
2023/08/28 02:21:26;;;;;;;3.47;1.50;;;25.10;46.40;;;;;;5035948;28;20525;-66
2023/08/28 02:23:54;;;;;;;2.97;1.50;;;25.30;47.50;;;;;;5036140;28;20025;-65
2023/08/28 02:26:26;;;;;;;2.25;1.48;;;25.30;45.60;;;;;;5036784;28;20355;-65
2023/08/28 02:29:00;;;;;;;2.75;1.60;;;25.10;45.40;;;;;;5037039;28;20069;-65
2023/08/28 02:31:28;;;;;;;3.38;1.60;;;25.60;44.20;;;;;;5036049;28;20040;-66
2023/08/28 02:33:58;;;;;;;2.63;1.50;;;25.20;44.90;;;;;;5035468;28;20049;-62
2023/08/28 02:36:30;;;;;;;4.07;1.60;;;24.10;47.20;;;;;;5035304;28;20037;-61
2023/08/28 02:39:01;;;;;;;2.78;1.50;;;23.80;47.30;;;;;;5036720;28;20076;-62
2023/08/28 02:41:29;;;;;;;2.73;1.43;;;23.90;47.00;;;;;;5038146;28;20451;-61
2023/08/28 02:43:57;;;;;;;3.45;1.45;;;24.60;46.20;;;;;;5038241;28;20030;-61
2023/08/28 02:46:25;;;;;;;4.95;1.75;;;24.60;45.20;;;;;;5037956;28;20337;-60
2023/08/28 02:48:56;;;;;;;2.63;1.20;;;24.70;45.20;;;;;;5037072;28;20036;-61
2023/08/28 02:51:24;;;;;;;2.95;1.40;;;24.50;45.60;;;;;;5036616;28;20029;-60
2023/08/28 02:53:51;;;;;;;2.50;1.20;;;24.20;45.70;;;;;;5035388;28;20029;-61
2023/08/28 02:56:25;;;;;;;3.10;1.40;;;25.00;46.10;;;;;;5035255;28;20064;-61
2023/08/28 02:58:56;;;;;;;2.10;1.50;;;25.10;44.90;;;;;;5036433;28;20185;-60
2023/08/28 03:01:24;;;;;;;3.58;1.58;;;25.30;45.60;;;;;;5036160;28;20025;-59
2023/08/28 03:03:51;;;;;;;1.92;1.35;;;25.40;45.00;;;;;;5036340;28;20356;-61
2023/08/28 03:06:19;;;;;;;3.28;1.30;;;25.60;44.00;;;;;;5035386;28;20052;-60
2023/08/28 03:08:46;;;;;;;2.20;1.00;;;25.60;42.60;;;;;;5035322;28;20026;-60
2023/08/28 03:11:14;;;;;;;2.85;1.23;;;25.80;43.90;;;;;;5036302;28;20018;-59
2023/08/28 03:13:42;;;;;;;2.13;1.02;;;26.60;40.60;;;;;;5035411;28;20052;-59
2023/08/28 03:16:09;;;;;;;2.85;1.13;;;26.70;40.10;;;;;;5036261;28;20025;-60
2023/08/28 03:18:38;;;;;;;1.48;0.93;;;26.80;40.00;;;;;;5035982;28;20049;-60
2023/08/28 03:21:06;;;;;;;4.13;1.15;;;25.90;42.90;;;;;;5035730;28;20060;-60
2023/08/28 03:23:33;;;;;;;2.08;1.35;;;25.50;41.90;;;;;;5035083;28;20689;-60
2023/08/28 03:26:02;;;;;;;1.52;0.90;;;25.30;41.20;;;;;;5035101;28;20037;-60
2023/08/28 03:28:30;;;;;;;1.17;0.98;;;25.10;42.10;;;;;;5035808;28;20404;-60
2023/08/28 03:30:59;;;;;;;1.65;1.00;;;25.50;41.10;;;;;;5035880;28;20029;-62
2023/08/28 03:33:27;;;;;;;1.60;1.10;;;25.40;41.10;;;;;;5036105;28;20109;-63
2023/08/28 03:35:55;;;;;;;4.20;1.20;;;25.80;40.50;;;;;;5037191;28;20025;-63
2023/08/28 03:38:22;;;;;;;5.25;1.00;;;25.60;41.70;;;;;;5034515;28;20108;-64
2023/08/28 03:40:50;;;;;;;1.42;0.80;;;25.10;41.30;;;;;;5035720;28;20029;-64
2023/08/28 03:43:17;;;;;;;2.22;0.80;;;25.20;41.20;;;;;;5034774;28;20025;-64
2023/08/28 03:45:45;;;;;;;2.10;0.70;;;24.70;41.20;;;;;;5034797;28;20448;-65
2023/08/28 03:48:13;;;;;;;1.38;0.80;;;25.10;39.80;;;;;;5034706;28;20068;-66
2023/08/28 03:50:40;;;;;;;2.47;0.90;;;25.10;39.50;;;;;;5034499;28;20029;-66
2023/08/28 03:53:08;;;;;;;40.25;10.65;;;25.60;41.20;;;;;;5034468;28;20021;-64
2023/08/28 03:55:35;;;;;;;1.48;0.75;;;25.10;39.50;;;;;;5034624;28;20025;-65
2023/08/28 03:58:03;;;;;;;2.42;0.63;;;24.60;39.30;;;;;;5035347;28;20052;-65
2023/08/28 04:00:42;;;;;;;1.17;0.70;;;24.20;40.10;;;;;;5034474;28;20072;-64
2023/08/28 04:03:09;;;;;;;2.00;0.93;;;24.20;39.60;;;;;;5035743;28;20462;-64
2023/08/28 04:05:44;;;;;;;1.45;0.90;;;24.60;39.60;;;;;;5034008;28;20075;-64
2023/08/28 04:08:12;;;;;;;1.13;0.88;;;24.90;38.60;;;;;;5033498;28;20307;-64
2023/08/28 04:10:39;;;;;;;1.30;0.80;;;25.00;39.00;;;;;;5034250;28;20439;-64
2023/08/28 04:13:08;;;;;;;2.42;0.95;;;25.10;38.80;;;;;;5035203;28;20112;-65
2023/08/28 04:15:35;;;;;;;1.65;0.80;;;25.70;37.90;;;;;;5034177;28;20100;-65
2023/08/28 04:18:04;;;;;;;1.30;0.80;;;25.40;38.20;;;;;;5034250;28;20454;-65
2023/08/28 04:20:31;;;;;;;2.03;0.85;;;24.90;38.60;;;;;;5033982;28;20470;-64
2023/08/28 04:22:59;;;;;;;1.52;0.70;;;24.90;38.80;;;;;;5034111;28;20022;-64
2023/08/28 04:25:29;;;;;;;1.88;0.80;;;25.10;39.00;;;;;;5034193;28;20049;-64
2023/08/28 04:27:57;;;;;;;3.00;1.27;;;25.50;37.90;;;;;;5033995;28;20037;-64
2023/08/28 04:30:25;;;;;;;1.52;0.70;;;25.60;38.70;;;;;;5034247;28;20032;-64
2023/08/28 04:32:52;;;;;;;2.70;0.93;;;25.00;39.70;;;;;;5034036;28;20025;-65
2023/08/28 04:35:20;;;;;;;1.33;0.73;;;24.30;40.90;;;;;;5034575;28;20109;-62
2023/08/28 04:37:47;;;;;;;1.48;0.90;;;24.30;41.80;;;;;;5034615;28;20017;-64
2023/08/28 04:40:14;;;;;;;1.63;0.90;;;25.00;40.80;;;;;;5033954;28;20101;-65
2023/08/28 04:42:42;;;;;;;3.33;0.90;;;25.10;40.90;;;;;;5034097;28;20117;-65
2023/08/28 04:45:10;;;;;;;2.97;1.30;;;24.90;39.80;;;;;;5034841;28;20128;-66
2023/08/28 04:47:37;;;;;;;4.22;1.60;;;24.80;40.60;;;;;;5033957;28;20030;-64
2023/08/28 04:50:06;;;;;;;4.38;1.75;;;25.40;45.80;;;;;;5033830;28;20359;-64
2023/08/28 04:52:33;;;;;;;3.03;1.38;;;25.10;47.30;;;;;;5033839;28;20033;-66
2023/08/28 04:55:01;;;;;;;3.88;1.40;;;24.60;48.90;;;;;;5033808;28;20017;-65
2023/08/28 04:57:32;;;;;;;5.43;1.30;;;24.10;49.80;;;;;;5034592;28;20105;-64
2023/08/28 05:00:00;;;;;;;3.55;1.35;;;23.90;49.90;;;;;;5034796;28;20096;-64
2023/08/28 05:02:27;;;;;;;3.72;1.70;;;23.50;51.50;;;;;;5034813;28;20352;-64
2023/08/28 05:04:59;;;;;;;7.43;2.80;;;23.60;51.10;;;;;;5033476;28;20049;-60
2023/08/28 05:07:27;;;;;;;4.90;1.75;;;24.00;50.20;;;;;;5034717;28;20033;-61
2023/08/28 05:09:54;;;;;;;4.20;1.75;;;23.90;50.70;;;;;;5034107;28;20026;-61
2023/08/28 05:12:22;;;;;;;4.05;1.60;;;24.10;50.40;;;;;;5034406;28;20021;-61
2023/08/28 05:14:50;;;;;;;4.20;1.48;;;24.10;50.00;;;;;;5034641;28;20502;-60
2023/08/28 05:17:17;;;;;;;4.03;2.03;;;24.10;50.00;;;;;;5034174;28;20054;-60
2023/08/28 05:19:45;;;;;;;3.10;1.40;;;24.50;48.70;;;;;;5034192;28;20037;-61
2023/08/28 05:22:13;;;;;;;1.77;1.13;;;24.40;48.10;;;;;;5036998;28;20087;-59
2023/08/28 05:24:44;;;;;;;3.05;1.40;;;24.90;46.70;;;;;;5036972;28;20086;-60
2023/08/28 05:27:17;;;;;;;3.33;1.42;;;25.10;47.00;;;;;;5038702;28;20367;-60
2023/08/28 05:29:46;;;;;;;2.65;1.40;;;25.40;46.80;;;;;;5038208;28;20030;-59
2023/08/28 05:32:14;;;;;;;3.75;1.27;;;25.60;46.40;;;;;;5036881;28;20029;-61
2023/08/28 05:34:41;;;;;;;3.05;1.55;;;26.10;44.30;;;;;;5036892;28;20025;-61
2023/08/28 05:37:09;;;;;;;2.17;1.25;;;25.10;46.80;;;;;;5037141;28;20033;-61
2023/08/28 05:39:44;;;;;;;5.03;1.45;;;24.80;46.70;;;;;;5036252;28;20554;-61
2023/08/28 05:42:11;;;;;;;3.20;1.60;;;23.80;48.40;;;;;;5036896;28;20021;-62
2023/08/28 05:44:39;;;;;;;2.55;1.42;;;22.70;51.10;;;;;;5037679;28;20025;-61
2023/08/28 05:47:06;;;;;;;3.40;1.50;;;22.40;51.10;;;;;;5036830;28;20345;-60
2023/08/28 05:49:34;;;;;;;2.60;1.30;;;22.20;51.50;;;;;;5036755;28;20029;-60
2023/08/28 05:52:02;;;;;;;2.63;1.50;;;21.90;52.40;;;;;;5036391;28;20029;-60
2023/08/28 05:54:30;;;;;;;4.35;1.63;;;21.70;52.10;;;;;;5037596;28;20176;-61
2023/08/28 05:56:58;;;;;;;2.35;1.58;;;21.40;53.10;;;;;;5036695;28;20021;-60
2023/08/28 05:59:25;;;;;;;4.32;1.40;;;21.10;53.70;;;;;;5036694;28;20491;-61
2023/08/28 06:01:53;;;;;;;5.40;1.30;;;20.90;53.80;;;;;;5037295;28;20032;-59
2023/08/28 06:04:20;;;;;;;2.85;1.40;;;20.70;54.00;;;;;;5036275;28;20120;-60
2023/08/28 06:06:48;;;;;;;2.33;1.20;;;20.60;55.10;;;;;;5036315;28;20026;-61
2023/08/28 06:09:15;;;;;;;2.20;1.20;;;20.40;54.60;;;;;;5037231;28;20439;-61
2023/08/28 06:11:43;;;;;;;2.42;1.20;;;20.20;54.90;;;;;;5036212;28;20029;-61
2023/08/28 06:14:10;;;;;;;3.35;1.33;;;20.20;55.40;;;;;;5037397;28;20100;-61
2023/08/28 06:16:38;;;;;;;1.73;1.15;;;20.20;55.90;;;;;;5037182;28;20025;-61
2023/08/28 06:19:06;;;;;;;3.78;1.13;;;20.20;55.40;;;;;;5036191;28;20031;-61
2023/08/28 06:21:33;;;;;;;2.67;1.20;;;20.20;55.60;;;;;;5035977;28;20521;-61
2023/08/28 06:24:01;;;;;;;2.28;1.40;;;20.10;55.00;;;;;;5036194;28;20076;-60
2023/08/28 06:26:28;;;;;;;3.33;1.23;;;20.00;55.50;;;;;;5037024;28;20022;-61
2023/08/28 06:28:57;;;;;;;3.97;1.33;;;20.00;55.80;;;;;;5036101;28;20083;-61
2023/08/28 06:31:25;;;;;;;4.15;1.42;;;19.90;55.50;;;;;;5035531;28;20036;-61
2023/08/28 06:33:52;;;;;;;3.45;1.50;;;19.80;55.70;;;;;;5037116;28;20029;-60
2023/08/28 06:36:20;;;;;;;2.35;1.23;;;19.60;55.40;;;;;;5035998;28;20384;-61
2023/08/28 06:38:49;;;;;;;2.67;1.60;;;19.50;55.90;;;;;;5035825;28;20053;-61
2023/08/28 06:41:17;;;;;;;1.80;1.17;;;19.40;56.50;;;;;;5036893;28;20026;-61
2023/08/28 06:43:44;;;;;;;2.35;1.27;;;19.30;56.70;;;;;;5036826;28;20021;-61
2023/08/28 06:46:12;;;;;;;3.78;1.17;;;19.20;57.20;;;;;;5036742;28;20049;-60
2023/08/28 06:48:43;;;;;;;1.58;1.10;;;19.10;57.20;;;;;;5035721;28;20123;-61
2023/08/28 06:51:12;;;;;;;2.28;1.10;;;19.10;57.70;;;;;;5035795;28;20336;-60
2023/08/28 06:53:40;;;;;;;3.88;1.08;;;19.00;57.70;;;;;;5035669;28;20025;-61
2023/08/28 06:56:07;;;;;;;2.15;1.27;;;19.00;58.10;;;;;;5035621;28;20108;-60
2023/08/28 06:58:35;;;;;;;2.47;1.20;;;18.80;58.50;;;;;;5036498;28;20021;-60
2023/08/28 07:01:03;;;;;;;3.35;1.25;;;18.80;58.90;;;;;;5035468;28;20060;-60
2023/08/28 07:03:30;;;;;;;4.07;1.27;;;18.70;59.00;;;;;;5035428;28;20443;-61
2023/08/28 07:05:58;;;;;;;3.25;1.20;;;18.60;59.00;;;;;;5035522;28;20037;-60
2023/08/28 07:08:25;;;;;;;2.78;1.13;;;18.60;59.70;;;;;;5036011;28;20075;-61
2023/08/28 07:10:53;;;;;;;1.40;1.10;;;18.50;59.70;;;;;;5035213;28;20029;-60
2023/08/28 07:13:20;;;;;;;2.15;1.35;;;18.40;59.30;;;;;;5036033;28;20018;-60
2023/08/28 07:15:48;;;;;;;3.00;1.10;;;18.30;59.60;;;;;;5035282;28;20113;-60
2023/08/28 07:18:16;;;;;;;1.73;0.85;;;18.30;60.00;;;;;;5034965;28;20029;-60
2023/08/28 07:20:45;;;;;;;4.82;1.20;;;18.30;60.10;;;;;;5035911;28;20045;-61
2023/08/28 07:23:12;;;;;;;2.45;0.90;;;18.10;60.40;;;;;;5034778;28;20018;-60
2023/08/28 07:25:39;;;;;;;0.95;0.65;;;18.10;59.70;;;;;;5034896;28;20100;-60
2023/08/28 07:28:09;;;;;;;1.83;0.80;;;18.10;59.40;;;;;;5035748;28;20499;-61
2023/08/28 07:30:36;;;;;;;1.67;0.98;;;18.00;59.80;;;;;;5034890;28;20499;-61
2023/08/28 07:33:04;;;;;;;3.00;0.80;;;18.00;60.30;;;;;;5034615;28;20053;-60
2023/08/28 07:35:35;;;;;;;3.08;1.00;;;17.80;61.10;;;;;;5036086;28;20025;-60
2023/08/28 07:38:07;;;;;;;1.77;0.90;;;17.80;61.20;;;;;;5035456;28;20037;-61
2023/08/28 07:40:35;;;;;;;3.17;0.88;;;17.70;61.90;;;;;;5034817;28;20035;-61
2023/08/28 07:43:03;;;;;;;2.55;1.05;;;17.60;62.50;;;;;;5034063;28;20075;-61
2023/08/28 07:45:34;;;;;;;2.55;0.93;;;17.60;63.00;;;;;;5034144;28;20029;-59
2023/08/28 07:48:02;;;;;;;4.40;1.30;;;17.60;62.90;;;;;;5034503;28;20037;-61
2023/08/28 07:50:31;;;;;;;3.50;1.00;;;17.50;63.50;;;;;;5034412;28;20083;-60
2023/08/28 07:52:59;;;;;;;2.97;1.00;;;17.50;64.00;;;;;;5034340;28;20045;-61
2023/08/28 07:55:27;;;;;;;1.67;1.00;;;17.40;64.50;;;;;;5034616;28;20124;-60
2023/08/28 07:57:55;;;;;;;2.85;1.33;;;17.50;65.00;;;;;;5035278;28;20022;-61
2023/08/28 08:00:23;;;;;;;3.67;1.67;;;17.50;65.70;;;;;;5034314;28;20025;-60
2023/08/28 08:02:52;;;;;;;4.20;1.70;;;17.40;66.30;;;;;;5034311;28;20079;-60
2023/08/28 08:05:20;;;;;;;4.25;1.90;;;17.30;67.20;;;;;;5034416;28;20110;-60
2023/08/28 08:07:47;;;;;;;2.22;1.30;;;17.20;67.60;;;;;;5034268;28;20033;-60
2023/08/28 08:10:19;;;;;;;2.53;1.10;;;17.20;68.00;;;;;;5034652;28;20402;-61
2023/08/28 08:12:49;;;;;;;2.92;1.25;;;17.10;68.80;;;;;;5034192;28;20032;-61
2023/08/28 08:15:17;;;;;;;3.05;1.30;;;17.10;69.60;;;;;;5035284;28;20111;-60
2023/08/28 08:17:44;;;;;;;3.47;1.42;;;17.10;70.00;;;;;;5034016;28;20108;-60
2023/08/28 08:20:12;;;;;;;4.00;1.33;;;17.10;70.10;;;;;;5034696;28;20407;-61
2023/08/28 08:22:43;;;;;;;3.95;1.40;;;17.10;70.70;;;;;;5033967;28;20095;-65
2023/08/28 08:25:11;;;;;;;7.40;2.00;;;17.10;70.90;;;;;;5034888;28;20072;-65
2023/08/28 08:27:39;;;;;;;2.92;1.65;;;17.10;71.00;;;;;;5033646;28;20083;-65
2023/08/28 08:30:08;;;;;;;3.95;1.60;;;17.10;71.30;;;;;;5033713;28;20499;-65
2023/08/28 08:32:36;;;;;;;3.58;1.70;;;17.10;71.30;;;;;;5034954;28;20417;-64
2023/08/28 08:35:05;;;;;;;6.10;2.38;;;17.10;71.60;;;;;;5035042;28;20041;-65
2023/08/28 08:37:34;;;;;;;3.85;1.60;;;17.20;71.50;;;;;;5035045;28;20029;-65
2023/08/28 08:40:02;;;;;;;6.65;2.00;;;17.30;71.70;;;;;;5034941;28;20017;-65
2023/08/28 08:42:30;;;;;;;6.43;1.58;;;17.20;71.60;;;;;;5033996;28;20029;-64
2023/08/28 08:44:58;;;;;;;2.22;1.60;;;17.30;72.00;;;;;;5034832;28;20385;-61
2023/08/28 08:47:25;;;;;;;3.75;1.67;;;17.30;72.00;;;;;;5033962;28;20044;-60
2023/08/28 08:49:58;;;;;;;3.63;1.50;;;17.20;71.80;;;;;;5033555;28;20064;-60
2023/08/28 08:52:26;;;;;;;3.60;1.60;;;17.30;71.80;;;;;;5035833;28;20029;-60
2023/08/28 08:55:05;;;;;;;3.78;1.60;;;17.10;72.10;;;;;;5037640;28;20021;-60
2023/08/28 08:57:39;;;;;;;3.65;1.40;;;17.00;72.70;;;;;;5038487;28;20036;-61
2023/08/28 09:00:25;;;;;;;1.85;1.20;;;17.10;72.60;;;;;;5038644;28;20072;-61
2023/08/28 09:02:55;;;;;;;3.38;1.70;;;17.10;72.30;;;;;;5037867;28;20052;-60
2023/08/28 09:05:22;;;;;;;3.53;1.85;;;17.10;72.10;;;;;;5037752;28;20053;-61
2023/08/28 09:07:51;;;;;;;3.60;1.50;;;17.20;71.80;;;;;;5037658;28;20037;-60
2023/08/28 09:10:19;;;;;;;3.45;1.48;;;17.20;71.60;;;;;;5037708;28;20464;-59
2023/08/28 09:12:47;;;;;;;3.55;1.67;;;17.30;71.60;;;;;;5038473;28;20355;-61
2023/08/28 09:15:16;;;;;;;3.35;1.67;;;17.30;71.40;;;;;;5037646;28;20112;-61
2023/08/28 09:17:43;;;;;;;6.10;1.60;;;17.30;71.10;;;;;;5037479;28;20025;-61
2023/08/28 09:20:16;;;;;;;3.95;1.50;;;17.40;70.90;;;;;;5036787;28;20341;-61
2023/08/28 09:22:48;;;;;;;2.95;1.70;;;17.40;70.80;;;;;;5037449;28;20356;-60
2023/08/28 09:25:19;;;;;;;;;;;17.50;70.40;;;;;;5037714;28;20436;-61
2023/08/28 09:27:48;;;;;;;5.50;1.65;;;17.50;70.10;;;;;;5037048;28;20000;-61
2023/08/28 09:30:36;;;;;;;4.10;1.77;;;17.50;70.30;;;;;;5037436;28;20025;-60
2023/08/28 09:33:07;;;;;;;4.80;1.65;;;17.60;69.90;;;;;;5037223;28;20071;-61
2023/08/28 09:35:42;;;;;;;2.72;1.60;;;17.50;69.60;;;;;;5037170;28;20025;-61
2023/08/28 09:38:11;;;;;;;4.18;1.95;;;17.60;69.70;;;;;;5020766;28;20033;-61
2023/08/28 09:40:42;;;;;;;4.68;1.70;;;17.60;69.70;;;;;;5038085;28;20032;-59
2023/08/28 09:43:19;;;;;;;6.10;1.70;;;17.50;69.40;;;;;;5037121;28;20052;-61
2023/08/28 09:45:47;;;;;;;4.40;1.80;;;17.50;69.40;;;;;;5037085;28;20455;-63
2023/08/28 09:48:15;;;;;;;3.05;1.83;;;17.50;69.60;;;;;;5036905;28;20029;-60
2023/08/28 09:50:43;;;;;;;3.88;1.75;;;17.60;69.90;;;;;;5036995;28;20033;-61
2023/08/28 09:53:16;;;;;;;4.50;2.40;;;17.50;70.10;;;;;;5036896;28;20030;-60
2023/08/28 09:55:49;;;;;;;6.53;1.98;;;17.50;69.60;;;;;;5036906;28;20026;-60
2023/08/28 09:58:17;;;;;;;4.10;2.13;;;17.30;70.40;;;;;;5038026;28;20018;-60
2023/08/28 10:00:45;;;;;;;2.75;1.75;;;17.10;71.10;;;;;;5036789;28;20467;-61
2023/08/28 10:03:14;;;;;;;5.32;1.63;;;16.90;72.10;;;;;;5036696;28;20116;-60
2023/08/28 10:05:44;;;;;;;11.48;4.50;;;16.80;72.70;;;;;;5036697;28;20482;-60
2023/08/28 10:08:15;;;;;;;6.40;2.85;;;16.60;73.80;;;;;;5036844;28;20025;-61
2023/08/28 10:10:46;;;;;;;4.88;2.45;;;16.70;74.40;;;;;;5036686;28;20021;-60
2023/08/28 10:13:21;;;;;;;4.13;2.28;;;16.60;75.20;;;;;;5036624;28;20056;-60
2023/08/28 10:16:05;;;;;;;3.75;2.38;;;16.50;75.50;;;;;;5020273;28;20025;-60
2023/08/28 10:18:40;;;;;;;3.22;2.10;;;16.40;76.50;;;;;;5036339;28;20018;-61
2023/08/28 10:21:08;;;;;;;3.58;2.05;;;16.40;77.10;;;;;;5036284;28;20064;-61
2023/08/28 10:23:38;;;;;;;3.42;2.03;;;16.30;77.70;;;;;;5036328;28;20450;-61
2023/08/28 10:26:06;;;;;;;3.20;1.95;;;16.30;77.90;;;;;;5036400;28;20059;-61
2023/08/28 10:28:35;;;;;;;2.58;2.03;;;16.20;77.60;;;;;;5036184;28;20035;-61
2023/08/28 10:31:05;;;;;;;4.38;2.00;;;16.10;78.40;;;;;;5037088;28;20415;-61
2023/08/28 10:33:34;;;;;;;4.30;2.15;;;16.10;79.20;;;;;;5036166;28;20030;-61
2023/08/28 10:36:03;;;;;;;3.88;2.38;;;16.00;80.00;;;;;;5037106;28;20021;-61
2023/08/28 10:38:32;;;;;;;3.67;2.75;;;16.00;80.30;;;;;;5036061;28;20021;-61
2023/08/28 10:41:00;;;;;;;5.53;2.92;;;16.00;80.10;;;;;;5036032;28;20440;-60
2023/08/28 10:43:29;;;;;;;5.53;3.33;;;16.00;80.50;;;;;;5037003;28;20072;-61
2023/08/28 10:46:01;;;;;;;6.38;3.50;;;15.90;81.30;;;;;;5036019;28;20460;-62
2023/08/28 10:48:29;;;;;;;7.88;3.20;;;15.90;81.50;;;;;;5036999;28;20399;-61
2023/08/28 10:50:58;;;;;;;7.40;3.17;;;15.80;81.80;;;;;;5036761;28;20471;-61
2023/08/28 10:53:27;;;;;;;4.20;2.65;;;15.70;81.70;;;;;;5036794;28;20417;-61
2023/08/28 10:56:01;;;;;;;7.53;2.90;;;15.60;82.00;;;;;;5035834;28;20029;-61
2023/08/28 10:58:37;;;;;;;4.13;2.42;;;15.60;82.70;;;;;;5035790;28;20021;-60
2023/08/28 11:01:15;;;;;;;5.53;2.50;;;15.50;83.60;;;;;;5035771;28;20026;-62
2023/08/28 11:03:52;;;;;;;5.97;3.03;;;15.60;84.10;;;;;;5019384;28;20022;-61
2023/08/28 11:06:43;;;;;;;6.75;3.20;;;15.70;84.10;;;;;;5035683;28;20200;-61
2023/08/28 11:09:29;;;;;;;7.10;3.13;;;15.80;84.00;;;;;;5035556;28;20029;-62
2023/08/28 11:12:00;;;;;;;9.18;3.67;;;15.80;84.00;;;;;;5035385;28;20033;-61
2023/08/28 11:14:33;;;;;;;5.97;3.28;;;15.80;83.90;;;;;;5035303;28;20425;-61
2023/08/28 11:17:15;;;;;;;7.57;3.78;;;15.50;84.10;;;;;;5019063;28;20026;-62
2023/08/28 11:19:55;;;;;;;6.85;3.58;;;15.40;85.50;;;;;;5035063;28;20044;-61
2023/08/28 11:22:46;;;;;;;5.47;3.90;;;15.00;87.80;;;;;;5036085;28;20041;-61
2023/08/28 11:25:34;;;;;;;5.72;3.53;;;15.10;88.10;;;;;;5035173;28;20107;-61
2023/08/28 11:28:02;;;;;;;6.03;3.42;;;15.20;87.40;;;;;;5035036;28;20065;-62
2023/08/28 11:30:30;;;;;;;7.55;3.90;;;15.20;87.10;;;;;;5036012;28;20446;-61
2023/08/28 11:32:58;;;;;;;6.25;3.88;;;15.20;87.40;;;;;;5035994;28;20361;-62
2023/08/28 11:35:26;;;;;;;5.43;3.40;;;15.20;87.50;;;;;;5035147;28;20036;-61
2023/08/28 11:37:55;;;;;;;4.63;3.40;;;15.30;87.40;;;;;;5034885;28;20420;-61
2023/08/28 11:40:25;;;;;;;6.28;3.92;;;15.30;87.40;;;;;;5034912;28;20021;-62
2023/08/28 11:43:06;;;;;;;7.80;3.53;;;15.30;87.50;;;;;;5034808;28;20360;-61
2023/08/28 11:45:34;;;;;;;4.43;3.30;;;15.30;87.50;;;;;;5034750;28;20030;-61
2023/08/28 11:48:06;;;;;;;5.32;3.28;;;15.30;87.30;;;;;;5035662;28;20101;-62
2023/08/28 11:50:35;;;;;;;6.03;3.40;;;15.30;87.50;;;;;;5034746;28;20033;-60
2023/08/28 11:53:02;;;;;;;5.20;3.55;;;15.10;87.50;;;;;;5034622;28;20471;-61
2023/08/28 11:55:33;;;;;;;5.80;3.65;;;15.00;88.20;;;;;;5034621;28;20628;-61
2023/08/28 11:58:01;;;;;;;6.10;3.38;;;15.10;87.90;;;;;;5034375;28;20060;-61
2023/08/28 12:00:30;;;;;;;5.38;3.53;;;15.10;87.20;;;;;;5018232;28;20075;-60
2023/08/28 12:02:58;;;;;;;7.50;4.22;;;15.10;87.70;;;;;;5034488;28;20083;-60
2023/08/28 12:05:27;;;;;;;7.07;4.90;;;15.00;88.10;;;;;;5034438;28;20033;-61
2023/08/28 12:07:54;;;;;;;8.02;4.82;;;15.10;88.40;;;;;;5034358;28;20075;-60
2023/08/28 12:10:22;;;;;;;7.18;3.80;;;15.00;87.60;;;;;;5035397;28;20033;-60
2023/08/28 12:12:54;;;;;;;6.13;3.75;;;15.00;87.60;;;;;;5034316;28;20370;-61
2023/08/28 12:15:31;;;;;;;5.95;3.92;;;15.00;88.00;;;;;;5034400;28;20036;-61
2023/08/28 12:18:06;;;;;;;6.22;3.50;;;15.10;87.80;;;;;;5018109;28;20025;-60
2023/08/28 12:20:35;;;;;;;5.57;3.55;;;15.10;87.80;;;;;;5034196;28;20062;-61
2023/08/28 12:23:03;;;;;;;4.50;3.40;;;15.20;87.50;;;;;;5034325;28;20030;-62
2023/08/28 12:25:46;;;;;;;6.68;3.83;;;15.10;87.50;;;;;;5034248;28;20061;-61
2023/08/28 12:28:13;;;;;;;;;;;15.10;87.60;;;;;;5035121;28;20422;-62
2023/08/28 12:30:41;;;;;;;5.47;3.90;;;15.10;87.70;;;;;;5034095;28;20007;-61
2023/08/28 12:33:09;;;;;;;7.55;4.30;;;15.10;87.60;;;;;;5034150;28;20029;-61
2023/08/28 12:35:41;;;;;;;5.80;4.10;;;15.00;87.50;;;;;;5034202;28;20108;-62
2023/08/28 12:38:09;;;;;;;7.28;4.30;;;15.00;87.70;;;;;;5034212;28;20083;-62
2023/08/28 12:40:40;;;;;;;6.85;4.43;;;15.00;88.20;;;;;;5034077;28;20025;-62
2023/08/28 12:43:16;;;;;;;8.15;4.93;;;14.90;87.70;;;;;;5034680;28;20025;-61
2023/08/28 12:45:43;;;;;;;8.10;5.30;;;14.70;87.80;;;;;;5034192;28;20026;-61
2023/08/28 12:48:11;;;;;;;5.90;4.63;;;14.60;88.10;;;;;;5034647;28;20025;-60
2023/08/28 12:50:38;;;;;;;11.10;5.13;;;14.60;88.30;;;;;;5034099;28;20120;-61
2023/08/28 12:53:06;;;;;;;7.18;4.75;;;14.60;88.30;;;;;;5034861;28;20029;-61
2023/08/28 12:55:34;;;;;;;6.18;5.00;;;14.40;89.00;;;;;;5034058;28;20017;-63
2023/08/28 12:58:02;;;;;;;8.10;4.68;;;14.30;89.30;;;;;;5033941;28;20032;-60
2023/08/28 13:00:29;;;;;;;9.40;5.30;;;14.30;89.20;;;;;;5033992;28;20017;-61